sensor_id;sensor_type;location;lat;lon;timestamp;pressure;altitude;pressure_sealevel;temperature;humidity
44637;BME280;30343;0.000;0.000;2022-08-20T00:01:10;99943.25;;;20.51;72.45
44637;BME280;30343;0.000;0.000;2022-08-20T00:03:54;99929.19;;;20.52;72.27
44637;BME280;30343;0.000;0.000;2022-08-20T00:06:40;99932.72;;;20.51;72.42
44637;BME280;30343;0.000;0.000;2022-08-20T00:09:24;99929.22;;;20.51;72.34
44637;BME280;30343;0.000;0.000;2022-08-20T00:12:14;99928.38;;;20.49;72.28
44637;BME280;30343;0.000;0.000;2022-08-20T00:14:58;99932.72;;;20.51;72.27
44637;BME280;30343;0.000;0.000;2022-08-20T00:17:42;99934.47;;;20.51;72.38
44637;BME280;30343;0.000;0.000;2022-08-20T00:20:30;99934.47;;;20.51;72.52
44637;BME280;30343;0.000;0.000;2022-08-20T00:23:19;99934.56;;;20.48;72.51
44637;BME280;30343;0.000;0.000;2022-08-20T00:26:03;99939.81;;;20.48;72.51
44637;BME280;30343;0.000;0.000;2022-08-20T00:28:51;99937.19;;;20.48;72.24
44637;BME280;30343;0.000;0.000;2022-08-20T00:31:37;99943.38;;;20.47;72.44
44637;BME280;30343;0.000;0.000;2022-08-20T00:34:22;99954.75;;;20.47;72.35
44637;BME280;30343;0.000;0.000;2022-08-20T00:37:14;99939.88;;;20.46;72.42
44637;BME280;30343;0.000;0.000;2022-08-20T00:39:58;99949.56;;;20.46;72.44
44637;BME280;30343;0.000;0.000;2022-08-20T00:42:45;99942.56;;;20.45;72.54
44637;BME280;30343;0.000;0.000;2022-08-20T00:45:31;99947.81;;;20.45;72.23
44637;BME280;30343;0.000;0.000;2022-08-20T00:48:16;99941.72;;;20.43;72.45
44637;BME280;30343;0.000;0.000;2022-08-20T00:54:23;99945.28;;;20.40;72.32
44637;BME280;30343;0.000;0.000;2022-08-20T00:57:10;99947.97;;;20.38;72.39
44637;BME280;30343;0.000;0.000;2022-08-20T01:00:00;99947.06;;;20.39;72.29
44637;BME280;30343;0.000;0.000;2022-08-20T01:02:49;99951.50;;;20.37;72.04
44637;BME280;30343;0.000;0.000;2022-08-20T01:05:41;99960.34;;;20.35;72.32
44637;BME280;30343;0.000;0.000;2022-08-20T01:08:27;99963.09;;;20.30;72.07
44637;BME280;30343;0.000;0.000;2022-08-20T01:11:13;99954.41;;;20.27;72.28
44637;BME280;30343;0.000;0.000;2022-08-20T01:14:08;99962.34;;;20.25;71.98
44637;BME280;30343;0.000;0.000;2022-08-20T01:17:06;99956.25;;;20.23;72.03
44637;BME280;30343;0.000;0.000;2022-08-20T01:19:56;99958.88;;;20.23;71.97
44637;BME280;30343;0.000;0.000;2022-08-20T01:26:07;99945.03;;;20.16;71.85
44637;BME280;30343;0.000;0.000;2022-08-20T01:28:55;99949.34;;;20.19;71.89
44637;BME280;30343;0.000;0.000;2022-08-20T01:31:43;99950.28;;;20.16;71.77
44637;BME280;30343;0.000;0.000;2022-08-20T01:34:28;99946.75;;;20.17;71.60
44637;BME280;30343;0.000;0.000;2022-08-20T01:37:14;99952.13;;;20.13;71.73
44637;BME280;30343;0.000;0.000;2022-08-20T01:39:59;99947.78;;;20.12;71.67
44637;BME280;30343;0.000;0.000;2022-08-20T01:42:45;99954.78;;;20.13;71.45
44637;BME280;30343;0.000;0.000;2022-08-20T01:45:38;99950.47;;;20.08;71.58
44637;BME280;30343;0.000;0.000;2022-08-20T01:48:24;99954.91;;;20.08;71.71
44637;BME280;30343;0.000;0.000;2022-08-20T01:51:14;99958.44;;;20.07;71.43
44637;BME280;30343;0.000;0.000;2022-08-20T01:53:59;99954.91;;;20.06;71.44
44637;BME280;30343;0.000;0.000;2022-08-20T01:56:56;99958.44;;;20.05;71.30
44637;BME280;30343;0.000;0.000;2022-08-20T01:59:43;99958.50;;;20.04;71.42
44637;BME280;30343;0.000;0.000;2022-08-20T02:02:27;99965.47;;;20.05;71.40
44637;BME280;30343;0.000;0.000;2022-08-20T02:05:14;99961.97;;;20.04;71.28
44637;BME280;30343;0.000;0.000;2022-08-20T02:08:01;99966.41;;;20.02;71.31
44637;BME280;30343;0.000;0.000;2022-08-20T02:10:45;99966.41;;;20.02;71.31
44637;BME280;30343;0.000;0.000;2022-08-20T02:13:33;99963.00;;;19.99;71.20
44637;BME280;30343;0.000;0.000;2022-08-20T02:16:26;99962.22;;;19.95;71.06
44637;BME280;30343;0.000;0.000;2022-08-20T02:19:17;99964.84;;;19.95;71.27
44637;BME280;30343;0.000;0.000;2022-08-20T02:22:20;99963.97;;;19.95;70.94
44637;BME280;30343;0.000;0.000;2022-08-20T02:25:10;99969.25;;;19.93;70.99
44637;BME280;30343;0.000;0.000;2022-08-20T02:27:56;99971.91;;;19.93;71.03
44637;BME280;30343;0.000;0.000;2022-08-20T02:30:43;99974.59;;;19.90;71.08
44637;BME280;30343;0.000;0.000;2022-08-20T02:33:28;99976.31;;;19.91;71.24
44637;BME280;30343;0.000;0.000;2022-08-20T02:36:13;99968.44;;;19.91;70.89
44637;BME280;30343;0.000;0.000;2022-08-20T02:38:57;99969.31;;;19.91;70.71
44637;BME280;30343;0.000;0.000;2022-08-20T02:41:41;99975.47;;;19.90;71.00
44637;BME280;30343;0.000;0.000;2022-08-20T02:44:25;99968.47;;;19.89;70.71
44637;BME280;30343;0.000;0.000;2022-08-20T02:47:12;99967.59;;;19.89;70.70
44637;BME280;30343;0.000;0.000;2022-08-20T02:49:56;99969.38;;;19.88;70.68
44637;BME280;30343;0.000;0.000;2022-08-20T02:52:43;99965.03;;;19.87;70.71
44637;BME280;30343;0.000;0.000;2022-08-20T02:55:30;99972.91;;;19.87;70.60
44637;BME280;30343;0.000;0.000;2022-08-20T02:58:15;99972.91;;;19.86;70.48
44637;BME280;30343;0.000;0.000;2022-08-20T03:01:00;99967.75;;;19.81;70.73
44637;BME280;30343;0.000;0.000;2022-08-20T03:03:47;99974.78;;;19.81;70.51
44637;BME280;30343;0.000;0.000;2022-08-20T03:06:31;99977.41;;;19.81;70.27
44637;BME280;30343;0.000;0.000;2022-08-20T03:09:15;99979.16;;;19.82;70.48
44637;BME280;30343;0.000;0.000;2022-08-20T03:12:03;99979.16;;;19.82;70.41
44637;BME280;30343;0.000;0.000;2022-08-20T03:14:49;99979.22;;;19.78;70.26
44637;BME280;30343;0.000;0.000;2022-08-20T03:17:39;99972.22;;;19.77;70.28
44637;BME280;30343;0.000;0.000;2022-08-20T03:20:24;99968.75;;;19.75;70.20
44637;BME280;30343;0.000;0.000;2022-08-20T03:23:12;99981.97;;;19.74;70.17
44637;BME280;30343;0.000;0.000;2022-08-20T03:25:56;99976.75;;;19.71;70.44
44637;BME280;30343;0.000;0.000;2022-08-20T03:28:41;99983.75;;;19.72;70.11
44637;BME280;30343;0.000;0.000;2022-08-20T03:31:26;99974.13;;;19.71;70.19
44637;BME280;30343;0.000;0.000;2022-08-20T03:34:10;99980.34;;;19.68;70.16
44637;BME280;30343;0.000;0.000;2022-08-20T03:36:54;99983.88;;;19.67;70.04
44637;BME280;30343;0.000;0.000;2022-08-20T03:39:38;99990.00;;;19.66;69.87
44637;BME280;30343;0.000;0.000;2022-08-20T03:42:26;99989.13;;;19.66;70.01
44637;BME280;30343;0.000;0.000;2022-08-20T03:45:11;99996.16;;;19.65;69.95
44637;BME280;30343;0.000;0.000;2022-08-20T03:48:05;99992.72;;;19.63;69.99
44637;BME280;30343;0.000;0.000;2022-08-20T03:50:52;99985.66;;;19.63;69.81
44637;BME280;30343;0.000;0.000;2022-08-20T03:53:39;99992.75;;;19.61;69.79
44637;BME280;30343;0.000;0.000;2022-08-20T03:56:24;99984.03;;;19.59;69.59
44637;BME280;30343;0.000;0.000;2022-08-20T03:59:08;99986.63;;;19.61;69.80
44637;BME280;30343;0.000;0.000;2022-08-20T04:01:52;99978.72;;;19.61;69.97
44637;BME280;30343;0.000;0.000;2022-08-20T04:04:37;99980.56;;;19.57;69.74
44637;BME280;30343;0.000;0.000;2022-08-20T04:07:23;99984.09;;;19.56;69.91
44637;BME280;30343;0.000;0.000;2022-08-20T04:10:11;99986.66;;;19.59;69.74
44637;BME280;30343;0.000;0.000;2022-08-20T04:12:56;99984.88;;;19.60;69.72
44637;BME280;30343;0.000;0.000;2022-08-20T04:15:41;99997.09;;;19.62;69.50
44637;BME280;30343;0.000;0.000;2022-08-20T04:18:25;100001.50;;;19.62;69.67
44637;BME280;30343;0.000;0.000;2022-08-20T04:21:10;99998.81;;;19.63;69.65
44637;BME280;30343;0.000;0.000;2022-08-20T04:23:57;100002.38;;;19.61;69.69
44637;BME280;30343;0.000;0.000;2022-08-20T04:26:41;100005.00;;;19.61;69.50
44637;BME280;30343;0.000;0.000;2022-08-20T04:29:26;100006.78;;;19.60;69.47
44637;BME280;30343;0.000;0.000;2022-08-20T04:32:12;100004.16;;;19.60;69.34
44637;BME280;30343;0.000;0.000;2022-08-20T04:34:56;100008.59;;;19.58;69.44
44637;BME280;30343;0.000;0.000;2022-08-20T04:37:41;100007.69;;;19.59;69.31
44637;BME280;30343;0.000;0.000;2022-08-20T04:40:26;100017.31;;;19.59;69.28
44637;BME280;30343;0.000;0.000;2022-08-20T04:43:31;100023.47;;;19.58;69.30
44637;BME280;30343;0.000;0.000;2022-08-20T04:46:19;100026.09;;;19.58;69.36
44637;BME280;30343;0.000;0.000;2022-08-20T04:49:10;100027.91;;;19.56;69.31
44637;BME280;30343;0.000;0.000;2022-08-20T04:51:54;100028.78;;;19.55;69.12
44637;BME280;30343;0.000;0.000;2022-08-20T04:54:44;100032.31;;;19.55;69.21
44637;BME280;30343;0.000;0.000;2022-08-20T04:57:34;100031.41;;;19.55;69.04
44637;BME280;30343;0.000;0.000;2022-08-20T05:00:21;100043.72;;;19.54;69.15
44637;BME280;30343;0.000;0.000;2022-08-20T05:03:08;100040.22;;;19.54;69.16
44637;BME280;30343;0.000;0.000;2022-08-20T05:05:52;100046.38;;;19.53;69.25
44637;BME280;30343;0.000;0.000;2022-08-20T05:08:37;100045.50;;;19.54;69.10
44637;BME280;30343;0.000;0.000;2022-08-20T05:11:24;100051.59;;;19.54;69.04
44637;BME280;30343;0.000;0.000;2022-08-20T05:14:12;100043.66;;;19.56;68.98
44637;BME280;30343;0.000;0.000;2022-08-20T05:17:02;100046.38;;;19.53;69.12
44637;BME280;30343;0.000;0.000;2022-08-20T05:19:47;100042.88;;;19.52;68.98
44637;BME280;30343;0.000;0.000;2022-08-20T05:22:34;100046.44;;;19.50;68.82
44637;BME280;30343;0.000;0.000;2022-08-20T05:25:18;100054.34;;;19.48;68.97
44637;BME280;30343;0.000;0.000;2022-08-20T05:28:10;100064.94;;;19.45;68.94
44637;BME280;30343;0.000;0.000;2022-08-20T05:30:58;100068.41;;;19.45;68.92
44637;BME280;30343;0.000;0.000;2022-08-20T05:33:42;100059.69;;;19.43;68.84
44637;BME280;30343;0.000;0.000;2022-08-20T05:36:26;100057.06;;;19.45;68.99
44637;BME280;30343;0.000;0.000;2022-08-20T05:39:10;100058.84;;;19.43;68.81
44637;BME280;30343;0.000;0.000;2022-08-20T05:41:56;100067.63;;;19.40;68.88
44637;BME280;30343;0.000;0.000;2022-08-20T05:44:40;100059.00;;;19.35;68.80
44637;BME280;30343;0.000;0.000;2022-08-20T05:47:25;100060.69;;;19.38;68.97
44637;BME280;30343;0.000;0.000;2022-08-20T05:50:15;100057.22;;;19.37;68.77
44637;BME280;30343;0.000;0.000;2022-08-20T05:53:00;100059.75;;;19.40;68.90
44637;BME280;30343;0.000;0.000;2022-08-20T05:55:44;100065.09;;;19.37;68.99
44637;BME280;30343;0.000;0.000;2022-08-20T05:58:29;100063.38;;;19.35;69.02
44637;BME280;30343;0.000;0.000;2022-08-20T06:01:15;100066.88;;;19.35;68.91
44637;BME280;30343;0.000;0.000;2022-08-20T06:04:02;100074.78;;;19.35;69.07
44637;BME280;30343;0.000;0.000;2022-08-20T06:07:06;100090.53;;;19.33;68.89
44637;BME280;30343;0.000;0.000;2022-08-20T06:09:50;100082.66;;;19.33;69.04
44637;BME280;30343;0.000;0.000;2022-08-20T06:12:35;100082.66;;;19.33;68.61
44637;BME280;30343;0.000;0.000;2022-08-20T06:15:19;100086.16;;;19.34;68.82
44637;BME280;30343;0.000;0.000;2022-08-20T06:18:08;100080.06;;;19.32;68.68
44637;BME280;30343;0.000;0.000;2022-08-20T06:20:52;100088.78;;;19.34;68.57
44637;BME280;30343;0.000;0.000;2022-08-20T06:23:37;100077.41;;;19.33;68.68
44637;BME280;30343;0.000;0.000;2022-08-20T06:26:21;100076.56;;;19.33;68.84
44637;BME280;30343;0.000;0.000;2022-08-20T06:29:04;100073.94;;;19.31;68.79
44637;BME280;30343;0.000;0.000;2022-08-20T06:31:49;100081.88;;;19.30;68.93
44637;BME280;30343;0.000;0.000;2022-08-20T06:34:35;100084.44;;;19.31;68.79
44637;BME280;30343;0.000;0.000;2022-08-20T06:37:25;100084.50;;;19.30;68.63
44637;BME280;30343;0.000;0.000;2022-08-20T06:40:11;100087.06;;;19.31;68.67
44637;BME280;30343;0.000;0.000;2022-08-20T06:42:59;100086.25;;;19.29;68.63
44637;BME280;30343;0.000;0.000;2022-08-20T06:45:43;100086.25;;;19.29;68.72
44637;BME280;30343;0.000;0.000;2022-08-20T06:48:30;100080.16;;;19.27;68.59
44637;BME280;30343;0.000;0.000;2022-08-20T06:51:13;100083.66;;;19.28;68.85
44637;BME280;30343;0.000;0.000;2022-08-20T06:54:00;100087.22;;;19.25;68.70
44637;BME280;30343;0.000;0.000;2022-08-20T06:56:45;100081.97;;;19.24;68.77
44637;BME280;30343;0.000;0.000;2022-08-20T06:59:29;100075.91;;;19.22;68.76
44637;BME280;30343;0.000;0.000;2022-08-20T07:02:14;100076.81;;;19.21;68.86
44637;BME280;30343;0.000;0.000;2022-08-20T07:04:58;100080.31;;;19.20;68.86
44637;BME280;30343;0.000;0.000;2022-08-20T07:07:48;100080.31;;;19.20;68.69
44637;BME280;30343;0.000;0.000;2022-08-20T07:10:37;100086.41;;;19.22;68.64
44637;BME280;30343;0.000;0.000;2022-08-20T07:13:21;100074.13;;;19.22;68.82
44637;BME280;30343;0.000;0.000;2022-08-20T07:16:05;100083.78;;;19.22;68.93
44637;BME280;30343;0.000;0.000;2022-08-20T07:18:49;100082.06;;;19.21;68.80
44637;BME280;30343;0.000;0.000;2022-08-20T07:21:36;100087.31;;;19.19;68.95
44637;BME280;30343;0.000;0.000;2022-08-20T07:24:20;100090.84;;;19.18;68.90
44637;BME280;30343;0.000;0.000;2022-08-20T07:27:04;100091.72;;;19.17;68.97
44637;BME280;30343;0.000;0.000;2022-08-20T07:29:50;100102.22;;;19.19;68.84
44637;BME280;30343;0.000;0.000;2022-08-20T07:32:53;100102.22;;;19.19;69.04
44637;BME280;30343;0.000;0.000;2022-08-20T07:35:43;100112.75;;;19.19;68.90
44637;BME280;30343;0.000;0.000;2022-08-20T07:38:32;100112.75;;;19.19;68.83
44637;BME280;30343;0.000;0.000;2022-08-20T07:41:20;100113.56;;;19.21;68.88
44637;BME280;30343;0.000;0.000;2022-08-20T07:44:04;100114.47;;;19.20;68.95
44637;BME280;30343;0.000;0.000;2022-08-20T07:46:51;100116.16;;;19.22;69.03
44637;BME280;30343;0.000;0.000;2022-08-20T07:49:43;100124.09;;;19.21;69.08
44637;BME280;30343;0.000;0.000;2022-08-20T07:52:30;100127.59;;;19.20;68.92
44637;BME280;30343;0.000;0.000;2022-08-20T07:55:20;100133.75;;;19.17;69.02
44637;BME280;30343;0.000;0.000;2022-08-20T07:58:13;100129.34;;;19.19;69.02
44637;BME280;30343;0.000;0.000;2022-08-20T08:00:58;100136.34;;;19.20;68.89
44637;BME280;30343;0.000;0.000;2022-08-20T08:03:50;100134.59;;;19.19;68.82
44637;BME280;30343;0.000;0.000;2022-08-20T08:06:37;100138.16;;;19.16;68.89
44637;BME280;30343;0.000;0.000;2022-08-20T08:09:28;100133.81;;;19.15;69.03
44637;BME280;30343;0.000;0.000;2022-08-20T08:12:15;100146.03;;;19.16;68.85
44637;BME280;30343;0.000;0.000;2022-08-20T08:15:00;100144.31;;;19.15;68.92
44637;BME280;30343;0.000;0.000;2022-08-20T08:17:46;100132.94;;;19.15;68.92
44637;BME280;30343;0.000;0.000;2022-08-20T08:20:31;100127.69;;;19.13;69.19
44637;BME280;30343;0.000;0.000;2022-08-20T08:23:16;100134.69;;;19.14;68.99
44637;BME280;30343;0.000;0.000;2022-08-20T08:26:00;100136.44;;;19.15;69.12
44637;BME280;30343;0.000;0.000;2022-08-20T08:28:45;100138.19;;;19.15;68.98
44637;BME280;30343;0.000;0.000;2022-08-20T08:31:29;100153.03;;;19.16;69.05
44637;BME280;30343;0.000;0.000;2022-08-20T08:34:16;100146.03;;;19.16;69.01
44637;BME280;30343;0.000;0.000;2022-08-20T08:37:01;100154.78;;;19.17;69.01
44637;BME280;30343;0.000;0.000;2022-08-20T08:39:45;100147.78;;;19.16;69.14
44637;BME280;30343;0.000;0.000;2022-08-20T08:42:44;100151.34;;;19.15;69.25
44637;BME280;30343;0.000;0.000;2022-08-20T08:45:37;100155.72;;;19.14;69.09
44637;BME280;30343;0.000;0.000;2022-08-20T08:48:36;100159.22;;;19.13;69.00
44637;BME280;30343;0.000;0.000;2022-08-20T08:51:49;100163.63;;;19.13;69.25
44637;BME280;30343;0.000;0.000;2022-08-20T08:54:34;100156.59;;;19.15;69.14
44637;BME280;30343;0.000;0.000;2022-08-20T08:57:19;100155.72;;;19.14;69.29
44637;BME280;30343;0.000;0.000;2022-08-20T09:00:11;100160.06;;;19.15;69.37
44637;BME280;30343;0.000;0.000;2022-08-20T09:03:09;100151.34;;;19.15;69.00
44637;BME280;30343;0.000;0.000;2022-08-20T09:05:58;100154.84;;;19.14;69.42
44637;BME280;30343;0.000;0.000;2022-08-20T09:08:51;100155.66;;;19.16;69.25
44637;BME280;30343;0.000;0.000;2022-08-20T09:11:51;100162.66;;;19.17;69.32
44637;BME280;30343;0.000;0.000;2022-08-20T09:14:37;100160.06;;;19.15;69.42
44637;BME280;30343;0.000;0.000;2022-08-20T09:17:24;100160.06;;;19.15;69.38
44637;BME280;30343;0.000;0.000;2022-08-20T09:20:11;100161.81;;;19.16;69.31
44637;BME280;30343;0.000;0.000;2022-08-20T09:22:58;100170.53;;;19.19;69.48
44637;BME280;30343;0.000;0.000;2022-08-20T09:25:41;100160.03;;;19.19;69.67
44637;BME280;30343;0.000;0.000;2022-08-20T09:28:25;100160.88;;;19.21;69.60
44637;BME280;30343;0.000;0.000;2022-08-20T09:31:12;100158.25;;;19.21;69.42
44637;BME280;30343;0.000;0.000;2022-08-20T09:34:00;100159.97;;;19.20;69.81
44637;BME280;30343;0.000;0.000;2022-08-20T09:36:47;100157.34;;;19.22;69.63
44637;BME280;30343;0.000;0.000;2022-08-20T09:39:30;100157.34;;;19.22;69.74
44637;BME280;30343;0.000;0.000;2022-08-20T09:42:27;100169.50;;;19.26;69.88
44637;BME280;30343;0.000;0.000;2022-08-20T09:45:15;100164.19;;;19.29;69.62
44637;BME280;30343;0.000;0.000;2022-08-20T09:48:04;100163.22;;;19.35;69.87
44637;BME280;30343;0.000;0.000;2022-08-20T09:50:54;100166.69;;;19.38;69.75
44637;BME280;30343;0.000;0.000;2022-08-20T09:53:38;100159.59;;;19.40;69.71
44637;BME280;30343;0.000;0.000;2022-08-20T09:56:25;100161.34;;;19.41;69.46
44637;BME280;30343;0.000;0.000;2022-08-20T09:59:17;100158.66;;;19.44;69.50
44637;BME280;30343;0.000;0.000;2022-08-20T10:02:01;100153.41;;;19.46;69.76
44637;BME280;30343;0.000;0.000;2022-08-20T10:04:45;100145.47;;;19.47;69.38
44637;BME280;30343;0.000;0.000;2022-08-20T10:07:36;100142.84;;;19.47;69.42
44637;BME280;30343;0.000;0.000;2022-08-20T10:10:20;100155.03;;;19.52;69.17
44637;BME280;30343;0.000;0.000;2022-08-20T10:13:04;100154.97;;;19.55;69.50
44637;BME280;30343;0.000;0.000;2022-08-20T10:15:54;100151.44;;;19.56;69.01
44637;BME280;30343;0.000;0.000;2022-08-20T10:18:46;100147.00;;;19.58;69.10
44637;BME280;30343;0.000;0.000;2022-08-20T10:21:32;100154.84;;;19.61;69.04
44637;BME280;30343;0.000;0.000;2022-08-20T10:24:22;100162.72;;;19.61;68.78
44637;BME280;30343;0.000;0.000;2022-08-20T10:27:06;100161.00;;;19.60;69.10
44637;BME280;30343;0.000;0.000;2022-08-20T10:29:55;100161.84;;;19.62;69.05
44637;BME280;30343;0.000;0.000;2022-08-20T10:32:39;100159.22;;;19.62;69.03
44637;BME280;30343;0.000;0.000;2022-08-20T10:35:26;100160.06;;;19.62;68.89
44637;BME280;30343;0.000;0.000;2022-08-20T10:38:19;100156.53;;;19.63;68.88
44637;BME280;30343;0.000;0.000;2022-08-20T10:41:14;100157.38;;;19.66;68.85
44637;BME280;30343;0.000;0.000;2022-08-20T10:44:04;100152.09;;;19.67;68.74
44637;BME280;30343;0.000;0.000;2022-08-20T10:46:58;100145.06;;;19.68;68.73
44637;BME280;30343;0.000;0.000;2022-08-20T10:50:02;100154.66;;;19.70;68.95
44637;BME280;30343;0.000;0.000;2022-08-20T10:52:47;100159.91;;;19.72;68.87
44637;BME280;30343;0.000;0.000;2022-08-20T10:55:31;100154.59;;;19.73;68.78
44637;BME280;30343;0.000;0.000;2022-08-20T10:58:18;100146.69;;;19.75;68.72
44637;BME280;30343;0.000;0.000;2022-08-20T11:01:02;100139.69;;;19.74;68.59
44637;BME280;30343;0.000;0.000;2022-08-20T11:03:53;100138.75;;;19.76;68.44
44637;BME280;30343;0.000;0.000;2022-08-20T11:06:40;100134.41;;;19.75;68.49
44637;BME280;30343;0.000;0.000;2022-08-20T11:09:26;100133.50;;;19.76;68.58
44637;BME280;30343;0.000;0.000;2022-08-20T11:12:17;100137.03;;;19.75;68.48
44637;BME280;30343;0.000;0.000;2022-08-20T11:15:03;100128.25;;;19.76;68.54
44637;BME280;30343;0.000;0.000;2022-08-20T11:17:50;100132.66;;;19.76;68.42
44637;BME280;30343;0.000;0.000;2022-08-20T11:20:35;100135.28;;;19.76;68.57
44637;BME280;30343;0.000;0.000;2022-08-20T11:23:24;100137.88;;;19.77;68.08
44637;BME280;30343;0.000;0.000;2022-08-20T11:26:09;100140.50;;;19.77;67.99
44637;BME280;30343;0.000;0.000;2022-08-20T11:28:53;100142.28;;;19.75;68.07
44637;BME280;30343;0.000;0.000;2022-08-20T11:31:37;100139.69;;;19.74;68.22
44637;BME280;30343;0.000;0.000;2022-08-20T11:34:20;100136.19;;;19.75;68.01
44637;BME280;30343;0.000;0.000;2022-08-20T11:37:11;100131.84;;;19.72;67.92
44637;BME280;30343;0.000;0.000;2022-08-20T11:39:59;100133.56;;;19.73;68.08
44637;BME280;30343;0.000;0.000;2022-08-20T11:42:43;100131.84;;;19.72;67.93
44637;BME280;30343;0.000;0.000;2022-08-20T11:45:27;100130.97;;;19.72;67.91
44637;BME280;30343;0.000;0.000;2022-08-20T11:48:17;100136.19;;;19.73;67.81
44637;BME280;30343;0.000;0.000;2022-08-20T11:51:01;100130.03;;;19.74;67.73
44637;BME280;30343;0.000;0.000;2022-08-20T11:53:51;100127.41;;;19.76;67.72
44637;BME280;30343;0.000;0.000;2022-08-20T11:56:35;100127.34;;;19.77;67.64
44637;BME280;30343;0.000;0.000;2022-08-20T11:59:19;100127.34;;;19.77;67.46
44637;BME280;30343;0.000;0.000;2022-08-20T12:02:03;100115.91;;;19.80;67.70
44637;BME280;30343;0.000;0.000;2022-08-20T12:04:50;100122.03;;;19.81;67.39
44637;BME280;30343;0.000;0.000;2022-08-20T12:07:34;100110.63;;;19.82;67.34
44637;BME280;30343;0.000;0.000;2022-08-20T12:10:18;100119.34;;;19.84;67.22
44637;BME280;30343;0.000;0.000;2022-08-20T12:13:09;100115.81;;;19.85;67.10
44637;BME280;30343;0.000;0.000;2022-08-20T12:16:01;100121.09;;;19.85;67.12
44637;BME280;30343;0.000;0.000;2022-08-20T12:18:46;100120.16;;;19.86;66.92
44637;BME280;30343;0.000;0.000;2022-08-20T12:21:29;100123.66;;;19.86;66.97
44637;BME280;30343;0.000;0.000;2022-08-20T12:24:16;100124.59;;;19.84;66.79
44637;BME280;30343;0.000;0.000;2022-08-20T12:29:58;100127.25;;;19.84;66.45
44637;BME280;30343;0.000;0.000;2022-08-20T12:32:46;100126.34;;;19.85;66.75
44637;BME280;30343;0.000;0.000;2022-08-20T12:35:30;100111.47;;;19.82;66.54
44637;BME280;30343;0.000;0.000;2022-08-20T12:38:15;100118.47;;;19.83;66.77
44637;BME280;30343;0.000;0.000;2022-08-20T12:40:59;100114.03;;;19.85;66.58
44637;BME280;30343;0.000;0.000;2022-08-20T12:43:43;100114.09;;;19.84;66.63
44637;BME280;30343;0.000;0.000;2022-08-20T12:46:33;100110.56;;;19.85;66.25
44637;BME280;30343;0.000;0.000;2022-08-20T12:49:26;100110.56;;;19.83;66.44
44637;BME280;30343;0.000;0.000;2022-08-20T12:52:11;100110.56;;;19.85;66.29
44637;BME280;30343;0.000;0.000;2022-08-20T12:54:59;100103.56;;;19.84;66.11
44637;BME280;30343;0.000;0.000;2022-08-20T12:57:54;100105.31;;;19.85;66.04
44637;BME280;30343;0.000;0.000;2022-08-20T13:00:44;100101.75;;;19.86;65.92
44637;BME280;30343;0.000;0.000;2022-08-20T13:03:37;100109.66;;;19.87;66.00
44637;BME280;30343;0.000;0.000;2022-08-20T13:06:29;100111.41;;;19.87;65.95
44637;BME280;30343;0.000;0.000;2022-08-20T13:09:22;100105.25;;;19.88;65.81
44637;BME280;30343;0.000;0.000;2022-08-20T13:12:10;100121.00;;;19.89;65.65
44637;BME280;30343;0.000;0.000;2022-08-20T13:14:54;100113.06;;;19.91;65.76
44637;BME280;30343;0.000;0.000;2022-08-20T13:17:52;100114.81;;;19.92;65.74
44637;BME280;30343;0.000;0.000;2022-08-20T13:20:42;100113.91;;;19.93;65.48
44637;BME280;30343;0.000;0.000;2022-08-20T13:23:32;100116.53;;;19.93;65.68
44637;BME280;30343;0.000;0.000;2022-08-20T13:26:22;100108.59;;;19.95;65.61
44637;BME280;30343;0.000;0.000;2022-08-20T13:29:15;100111.25;;;19.95;65.30
44637;BME280;30343;0.000;0.000;2022-08-20T13:32:08;100102.44;;;19.96;65.65
44637;BME280;30343;0.000;0.000;2022-08-20T13:34:58;100094.59;;;19.94;65.54
44637;BME280;30343;0.000;0.000;2022-08-20T13:37:51;100099.88;;;19.94;65.16
44637;BME280;30343;0.000;0.000;2022-08-20T13:40:46;100103.34;;;19.95;65.50
44637;BME280;30343;0.000;0.000;2022-08-20T13:43:30;100092.03;;;19.92;65.29
44637;BME280;30343;0.000;0.000;2022-08-20T13:46:16;100092.88;;;19.93;65.14
44637;BME280;30343;0.000;0.000;2022-08-20T13:49:04;100090.28;;;19.91;65.32
44637;BME280;30343;0.000;0.000;2022-08-20T13:51:50;100091.13;;;19.92;65.43
44637;BME280;30343;0.000;0.000;2022-08-20T13:54:35;100083.25;;;19.92;65.21
44637;BME280;30343;0.000;0.000;2022-08-20T13:57:25;100077.09;;;19.93;65.06
44637;BME280;30343;0.000;0.000;2022-08-20T14:00:32;100085.84;;;19.93;65.21
44637;BME280;30343;0.000;0.000;2022-08-20T14:03:20;100080.56;;;19.95;65.00
44637;BME280;30343;0.000;0.000;2022-08-20T14:06:10;100075.31;;;19.93;64.73
44637;BME280;30343;0.000;0.000;2022-08-20T14:08:57;100071.84;;;19.93;64.79
44637;BME280;30343;0.000;0.000;2022-08-20T14:11:47;100084.09;;;19.94;65.00
44637;BME280;30343;0.000;0.000;2022-08-20T14:14:34;100091.94;;;19.96;64.96
44637;BME280;30343;0.000;0.000;2022-08-20T14:17:22;100087.56;;;19.95;64.36
44637;BME280;30343;0.000;0.000;2022-08-20T14:20:13;100082.31;;;19.95;64.25
44637;BME280;30343;0.000;0.000;2022-08-20T14:22:58;100081.41;;;19.96;64.33
44637;BME280;30343;0.000;0.000;2022-08-20T14:25:45;100089.28;;;19.97;64.32
44637;BME280;30343;0.000;0.000;2022-08-20T14:28:29;100091.88;;;19.99;64.18
44637;BME280;30343;0.000;0.000;2022-08-20T14:31:13;100085.75;;;19.98;63.93
44637;BME280;30343;0.000;0.000;2022-08-20T14:33:57;100093.59;;;20.00;64.05
44637;BME280;30343;0.000;0.000;2022-08-20T14:36:41;100088.34;;;20.00;63.99
44637;BME280;30343;0.000;0.000;2022-08-20T14:39:25;100092.75;;;19.99;63.94
44637;BME280;30343;0.000;0.000;2022-08-20T14:42:09;100084.84;;;19.99;63.77
44637;BME280;30343;0.000;0.000;2022-08-20T14:44:59;100085.75;;;19.98;63.71
44637;BME280;30343;0.000;0.000;2022-08-20T14:47:47;100085.75;;;19.98;63.95
44637;BME280;30343;0.000;0.000;2022-08-20T14:50:33;100091.88;;;19.99;63.80
44637;BME280;30343;0.000;0.000;2022-08-20T14:53:18;100084.88;;;19.98;63.68
44637;BME280;30343;0.000;0.000;2022-08-20T14:56:03;100086.59;;;19.99;63.60
44637;BME280;30343;0.000;0.000;2022-08-20T14:58:47;100087.50;;;19.99;63.81